Da Xian, China
Current Conditions -  °F | °C
As of 6:00 AM on Wednesday 28 Jan 2015 (Local Time) from ZUCK Reporting Station
Overcast Overcast  
Wind Chill: 43°   Ceiling: 4600
Heat Index: 46°   Visibility: 6mi
Dew Point: 43°   Wind: 7mph
Humidity: 87%   Direction: 30°NNE
Pressure: 29.91"   Gusts: NA
Location:  31.2°N, 107.5°E
Report Text: ZUCK 272200Z 03003MPS 9000 FEW016 OVC046 08/06 Q1013 NOSIG
Loading
Personal Weather Stations






























Interactive Weather Map New forecast layout! Learn more

10-Day Weather Forecast

Advertisements
Track Severe Weather on mobile